Terminal Aerodrome Forecast
Issued by NWS Topeka, KS

Home | Current Version | Previous Version | Text Only | Print | Product List | Glossary Off
Versions: 1 2 3 4 5 6 7 8 9 10 11 12 13 14

736
FTUS43 KTOP 271711 AAA
TAFTOP
TAF AMD
KTOP 271711Z 2717/2812 15006KT P6SM SCT040
      TEMPO 2717/2718 BKN025=

USA.gov is the U.S. government's official web portal to all federal, state and local government web resources and services.